createdAt,value
2023-02-02T00:00:21.545Z,74.82
2023-02-02T00:02:47.994Z,75.18
2023-02-02T00:05:14.535Z,74.85
2023-02-02T00:07:40.968Z,74.94
2023-02-02T00:10:07.854Z,75.20
2023-02-02T00:12:34.258Z,75.42
2023-02-02T00:15:00.699Z,75.37
2023-02-02T00:17:27.084Z,75.28
2023-02-02T00:19:53.739Z,75.26
2023-02-02T00:22:20.167Z,75.54
2023-02-02T00:24:46.585Z,75.49
2023-02-02T00:27:13.020Z,75.37
2023-02-02T00:29:39.895Z,75.65
2023-02-02T00:32:06.330Z,75.27
2023-02-02T00:34:33.244Z,75.59
2023-02-02T00:36:59.675Z,75.26
2023-02-02T00:39:26.324Z,75.23
2023-02-02T00:41:53.213Z,75.54
2023-02-02T00:44:38.419Z,75.65
2023-02-02T00:47:05.217Z,75.26
2023-02-02T00:49:31.771Z,75.41
2023-02-02T00:52:00.192Z,75.63
2023-02-02T00:54:27.502Z,75.61
2023-02-02T00:56:53.925Z,75.26
2023-02-02T00:59:20.459Z,75.42
2023-02-02T01:01:47.224Z,75.32
2023-02-02T01:04:13.716Z,75.16
2023-02-02T01:06:40.168Z,75.26
2023-02-02T01:09:08.126Z,75.35
2023-02-02T01:11:34.644Z,75.26
2023-02-02T01:14:01.120Z,75.56
2023-02-02T01:16:27.762Z,75.36
2023-02-02T01:18:54.632Z,75.26
2023-02-02T01:21:21.878Z,75.17
2023-02-02T01:23:48.661Z,75.42
2023-02-02T01:26:15.868Z,75.17
2023-02-02T01:28:43.227Z,75.16
2023-02-02T01:31:16.023Z,75.28
2023-02-02T01:33:44.077Z,75.65
2023-02-02T01:36:14.561Z,75.54
2023-02-02T01:38:42.171Z,75.51
2023-02-02T01:41:12.844Z,75.49
2023-02-02T01:43:42.991Z,75.59
2023-02-02T01:46:15.130Z,75.83
2023-02-02T01:48:45.426Z,75.67
2023-02-02T01:51:16.023Z,75.75
2023-02-02T01:53:44.971Z,75.88
2023-02-02T01:56:17.526Z,75.86
2023-02-02T01:58:45.299Z,75.78
2023-02-02T02:01:13.631Z,75.86
2023-02-02T02:03:40.479Z,75.63
2023-02-02T02:06:09.819Z,76.11
2023-02-02T02:08:41.146Z,75.68
2023-02-02T02:11:07.847Z,75.72
2023-02-02T02:13:57.346Z,75.85
2023-02-02T02:16:52.764Z,75.83
2023-02-02T02:20:16.649Z,75.92
2023-02-02T02:23:26.691Z,75.82
2023-02-02T02:26:33.668Z,76.04
2023-02-02T02:29:19.461Z,76.28
2023-02-02T02:31:58.639Z,76.22
2023-02-02T02:34:55.031Z,76.30
2023-02-02T02:37:46.103Z,76.39
2023-02-02T02:40:23.647Z,76.59
2023-02-02T02:42:56.008Z,76.42
2023-02-02T02:45:26.254Z,76.39
2023-02-02T02:47:53.531Z,76.57
2023-02-02T02:50:22.215Z,76.57
2023-02-02T02:53:02.050Z,76.54
2023-02-02T02:55:39.392Z,76.45
2023-02-02T02:58:13.501Z,76.56
2023-02-02T03:00:48.188Z,76.70
2023-02-02T03:03:29.522Z,76.88
2023-02-02T03:06:19.525Z,76.75
2023-02-02T03:08:52.334Z,76.61
2023-02-02T03:11:19.838Z,76.88
2023-02-02T03:13:47.224Z,76.56
2023-02-02T03:16:15.360Z,76.50
2023-02-02T03:18:42.508Z,76.67
2023-02-02T03:21:10.817Z,76.84
2023-02-02T03:23:38.560Z,76.99
2023-02-02T03:26:05.811Z,76.66
2023-02-02T03:28:32.790Z,76.60
2023-02-02T03:31:01.794Z,76.65
2023-02-02T03:33:29.764Z,76.61
2023-02-02T03:35:56.258Z,76.59
2023-02-02T03:38:22.796Z,76.83
2023-02-02T03:40:50.983Z,76.54
2023-02-02T03:43:24.296Z,76.73
2023-02-02T03:46:02.657Z,76.44
2023-02-02T03:48:29.119Z,76.53
2023-02-02T03:50:55.585Z,76.77
2023-02-02T03:53:22.686Z,76.68
2023-02-02T03:55:49.271Z,76.45
2023-02-02T03:58:15.730Z,76.81
2023-02-02T04:00:42.172Z,76.60
2023-02-02T04:03:08.848Z,76.41
2023-02-02T04:05:35.406Z,76.36
2023-02-02T04:08:01.810Z,76.63
2023-02-02T04:10:28.256Z,76.59
2023-02-02T04:12:54.701Z,76.70
2023-02-02T04:15:21.176Z,76.62
2023-02-02T04:17:47.586Z,76.54
2023-02-02T04:20:14.053Z,76.54
2023-02-02T04:22:40.559Z,76.74
2023-02-02T04:25:07.465Z,76.77
2023-02-02T04:27:34.051Z,76.85
2023-02-02T04:30:00.572Z,76.92
2023-02-02T04:32:27.003Z,76.64
2023-02-02T04:34:53.436Z,76.65
2023-02-02T04:37:19.913Z,76.60
2023-02-02T04:39:46.300Z,76.67
2023-02-02T04:42:13.030Z,76.65
2023-02-02T04:44:40.175Z,76.47
2023-02-02T04:47:06.633Z,76.64
2023-02-02T04:49:33.100Z,76.43
2023-02-02T04:51:59.501Z,76.41
2023-02-02T04:54:26.118Z,76.42
2023-02-02T04:56:52.567Z,76.38
2023-02-02T04:59:19.038Z,76.26
2023-02-02T05:01:45.450Z,76.19
2023-02-02T05:04:12.002Z,76.46
2023-02-02T05:06:38.507Z,76.04
2023-02-02T05:09:05.136Z,76.23
2023-02-02T05:11:31.577Z,76.46
2023-02-02T05:13:58.047Z,76.33
2023-02-02T05:16:25.933Z,76.34
2023-02-02T05:18:56.850Z,76.46
2023-02-02T05:21:24.152Z,76.25
2023-02-02T05:23:50.639Z,75.99
2023-02-02T05:26:22.031Z,76.13
2023-02-02T05:28:48.620Z,76.32
2023-02-02T05:31:16.511Z,76.17
2023-02-02T05:33:43.092Z,76.36
2023-02-02T05:36:10.032Z,76.25
2023-02-02T05:38:36.549Z,76.38
2023-02-02T05:41:03.201Z,76.20
2023-02-02T05:43:31.318Z,76.36
2023-02-02T05:45:57.997Z,76.11
2023-02-02T05:48:24.980Z,76.03
2023-02-02T05:51:07.068Z,76.19
2023-02-02T05:53:33.584Z,76.27
2023-02-02T05:56:00.116Z,76.01
2023-02-02T05:58:27.889Z,76.05
2023-02-02T06:00:56.580Z,76.38
2023-02-02T06:03:24.005Z,76.15
2023-02-02T06:05:50.696Z,76.55
2023-02-02T06:08:17.117Z,76.21
2023-02-02T06:10:43.654Z,76.56
2023-02-02T06:13:10.323Z,76.41
2023-02-02T06:15:37.108Z,76.25
2023-02-02T06:18:06.010Z,76.28
2023-02-02T06:20:32.833Z,76.44
2023-02-02T06:22:59.495Z,76.44
2023-02-02T06:25:26.203Z,76.33
2023-02-02T06:28:00.351Z,76.15
2023-02-02T06:30:28.052Z,76.25
2023-02-02T06:32:54.876Z,76.15
2023-02-02T06:35:22.786Z,76.43
2023-02-02T06:37:49.471Z,76.62
2023-02-02T06:40:16.309Z,76.58
2023-02-02T06:42:42.753Z,76.52
2023-02-02T06:45:09.852Z,76.35
2023-02-02T06:47:36.251Z,76.39
2023-02-02T06:50:03.092Z,76.35
2023-02-02T06:52:29.520Z,76.59
2023-02-02T06:54:56.016Z,76.33
2023-02-02T06:57:22.526Z,76.68
2023-02-02T06:59:50.557Z,76.48
2023-02-02T07:02:17.101Z,76.54
2023-02-02T07:04:43.569Z,76.46
2023-02-02T07:07:10.015Z,76.52
2023-02-02T07:09:36.614Z,76.48
2023-02-02T07:12:03.089Z,76.58
2023-02-02T07:14:29.539Z,76.40
2023-02-02T07:16:56.011Z,76.50
2023-02-02T07:19:22.478Z,76.38
2023-02-02T07:21:49.055Z,76.13
2023-02-02T07:24:15.445Z,76.16
2023-02-02T07:26:41.970Z,76.17
2023-02-02T07:29:12.858Z,76.43
2023-02-02T07:31:39.753Z,76.38
2023-02-02T07:34:06.620Z,76.25
2023-02-02T07:36:33.672Z,76.72
2023-02-02T07:39:03.817Z,76.70
2023-02-02T07:41:31.022Z,76.41
2023-02-02T07:43:57.464Z,76.74
2023-02-02T07:46:24.193Z,76.60
2023-02-02T07:48:55.237Z,76.65
2023-02-02T07:51:22.538Z,76.70
2023-02-02T07:53:52.218Z,76.65
2023-02-02T07:56:32.114Z,76.59
2023-02-02T07:58:59.689Z,76.99
2023-02-02T08:01:28.452Z,76.98
2023-02-02T08:03:58.909Z,76.93
2023-02-02T08:06:32.187Z,77.03
2023-02-02T08:09:00.254Z,76.91
2023-02-02T08:11:28.369Z,76.72
2023-02-02T08:13:57.416Z,76.74
2023-02-02T08:16:24.850Z,77.05
2023-02-02T08:18:52.265Z,76.92
2023-02-02T08:21:19.614Z,76.99
2023-02-02T08:23:47.268Z,76.82
2023-02-02T08:26:15.287Z,77.03
2023-02-02T08:28:44.016Z,76.66
2023-02-02T08:31:18.477Z,77.00
2023-02-02T08:33:45.204Z,76.84
2023-02-02T08:36:16.312Z,76.63
2023-02-02T08:38:43.109Z,76.79
2023-02-02T08:41:12.747Z,76.98
2023-02-02T08:43:40.071Z,77.04
2023-02-02T08:46:08.753Z,77.02
2023-02-02T08:48:36.145Z,76.93
2023-02-02T08:51:03.452Z,77.08
2023-02-02T08:53:30.213Z,77.45
2023-02-02T08:56:17.673Z,77.30
2023-02-02T08:58:46.609Z,76.97
2023-02-02T09:01:16.311Z,77.26
2023-02-02T09:03:43.492Z,77.20
2023-02-02T09:06:12.292Z,77.35
2023-02-02T09:08:39.165Z,77.11
2023-02-02T09:11:07.777Z,77.24
2023-02-02T09:13:35.330Z,77.24
2023-02-02T09:16:03.495Z,77.30
2023-02-02T09:18:30.213Z,77.24
2023-02-02T09:21:00.853Z,77.13
2023-02-02T09:23:30.355Z,77.56
2023-02-02T09:25:57.239Z,77.42
2023-02-02T09:28:23.620Z,77.17
2023-02-02T09:30:50.416Z,77.40
2023-02-02T09:33:16.942Z,77.52
2023-02-02T09:35:43.355Z,77.17
2023-02-02T09:38:09.847Z,77.58
2023-02-02T09:40:36.379Z,77.44
2023-02-02T09:43:51.273Z,77.44
2023-02-02T09:46:20.679Z,77.57
2023-02-02T09:49:00.415Z,77.30
2023-02-02T09:51:32.952Z,77.41
2023-02-02T09:54:06.658Z,77.55
2023-02-02T09:56:41.880Z,77.46
2023-02-02T09:59:20.390Z,77.63
2023-02-02T10:01:52.058Z,77.49
2023-02-02T10:04:25.400Z,77.78
2023-02-02T10:06:56.161Z,77.59
2023-02-02T10:09:43.578Z,77.67
2023-02-02T10:12:19.108Z,77.79
2023-02-02T10:14:58.060Z,77.76
2023-02-02T10:17:51.359Z,78.08
2023-02-02T10:20:30.510Z,77.71
2023-02-02T10:23:03.806Z,77.92
2023-02-02T10:25:31.287Z,77.68
2023-02-02T10:28:16.725Z,77.60
2023-02-02T10:30:53.204Z,77.74
2023-02-02T10:33:37.754Z,77.72
2023-02-02T10:36:20.244Z,77.67
2023-02-02T10:39:25.205Z,77.65
2023-02-02T10:41:59.525Z,77.58
2023-02-02T10:45:15.717Z,77.51
2023-02-02T10:47:42.757Z,77.49
2023-02-02T10:50:11.988Z,77.50
2023-02-02T10:52:43.591Z,77.41
2023-02-02T10:55:09.928Z,77.36
2023-02-02T10:57:49.297Z,77.22
2023-02-02T11:00:31.508Z,77.21
2023-02-02T11:02:58.962Z,76.98
2023-02-02T11:05:46.348Z,77.10
2023-02-02T11:08:19.585Z,77.04
2023-02-02T11:10:49.830Z,76.85
2023-02-02T11:13:25.032Z,76.96
2023-02-02T11:15:51.494Z,76.96
2023-02-02T11:18:44.750Z,76.69
2023-02-02T11:21:22.270Z,76.57
2023-02-02T11:23:53.997Z,76.77
2023-02-02T11:26:20.924Z,76.45
2023-02-02T11:28:49.455Z,76.42
2023-02-02T11:31:33.040Z,76.29
2023-02-02T11:34:20.466Z,75.94
2023-02-02T11:36:59.593Z,75.93
2023-02-02T11:39:26.296Z,76.16
2023-02-02T11:42:06.220Z,76.05
2023-02-02T11:44:35.585Z,76.26
2023-02-02T11:47:04.772Z,75.82
2023-02-02T11:49:37.602Z,75.49
2023-02-02T11:52:07.634Z,75.52
2023-02-02T11:54:37.251Z,75.45
2023-02-02T11:57:11.491Z,75.00
2023-02-02T11:59:40.759Z,74.84
2023-02-02T12:02:19.567Z,74.83
2023-02-02T12:04:48.081Z,74.81
2023-02-02T12:07:24.852Z,74.87
2023-02-02T12:09:51.972Z,74.41
2023-02-02T12:13:07.647Z,73.67
2023-02-02T12:16:06.096Z,73.83
2023-02-02T12:18:54.463Z,73.71
2023-02-02T12:21:37.182Z,73.32
2023-02-02T12:24:33.908Z,73.70
2023-02-02T12:27:23.197Z,73.58
2023-02-02T12:30:10.882Z,73.39
2023-02-02T12:32:45.583Z,73.55
2023-02-02T12:35:50.022Z,73.25
2023-02-02T12:38:55.485Z,73.36
2023-02-02T12:41:47.948Z,73.39
2023-02-02T12:44:50.751Z,72.53
2023-02-02T12:47:36.597Z,72.62
2023-02-02T12:50:25.674Z,72.27
2023-02-02T12:53:13.322Z,72.32
2023-02-02T12:55:44.814Z,72.44
2023-02-02T12:58:29.921Z,72.05
2023-02-02T13:01:18.044Z,71.84
2023-02-02T13:04:07.514Z,71.60
2023-02-02T13:07:06.222Z,71.29
2023-02-02T13:09:50.340Z,71.28
2023-02-02T13:12:20.322Z,71.34
2023-02-02T13:14:51.636Z,71.62
2023-02-02T13:17:29.890Z,70.91
2023-02-02T13:20:03.326Z,71.26
2023-02-02T13:22:42.673Z,71.20
2023-02-02T13:25:18.788Z,71.33
2023-02-02T13:27:46.869Z,71.27
2023-02-02T13:30:31.211Z,71.30
2023-02-02T13:33:10.495Z,71.20
2023-02-02T13:35:58.996Z,71.42
2023-02-02T13:38:30.433Z,71.59
2023-02-02T13:41:03.820Z,71.49
2023-02-02T13:43:39.786Z,71.34
2023-02-02T13:46:31.101Z,71.42
2023-02-02T13:49:04.493Z,71.11
2023-02-02T13:52:08.518Z,70.87
2023-02-02T13:55:10.453Z,71.03
2023-02-02T14:00:54.089Z,71.02
2023-02-02T14:03:28.716Z,71.10
2023-02-02T14:06:15.811Z,70.93
2023-02-02T14:08:55.552Z,71.41
2023-02-02T14:11:26.908Z,71.24
2023-02-02T14:14:28.797Z,71.13
2023-02-02T14:16:56.612Z,71.12
2023-02-02T14:19:35.330Z,71.19
2023-02-02T14:22:12.010Z,71.07
2023-02-02T14:24:43.378Z,71.22
2023-02-02T14:27:09.966Z,71.36
2023-02-02T14:29:46.817Z,71.27
2023-02-02T14:32:28.708Z,71.22
2023-02-02T14:34:59.221Z,71.49
2023-02-02T14:37:28.341Z,71.21
2023-02-02T14:40:07.045Z,71.13
2023-02-02T14:43:30.038Z,71.24
2023-02-02T14:46:14.579Z,70.83
2023-02-02T14:48:43.805Z,71.02
2023-02-02T14:51:26.584Z,70.83
2023-02-02T14:54:01.052Z,70.77
2023-02-02T14:57:06.466Z,70.89
2023-02-02T14:59:40.315Z,70.84
2023-02-02T15:02:06.984Z,70.91
2023-02-02T15:04:33.508Z,71.42
2023-02-02T15:07:22.650Z,71.13
2023-02-02T15:09:50.455Z,71.46
2023-02-02T15:12:20.338Z,71.30
2023-02-02T15:15:11.780Z,71.31
2023-02-02T15:17:48.691Z,70.69
2023-02-02T15:20:27.332Z,70.93
2023-02-02T15:23:00.847Z,71.08
2023-02-02T15:25:36.040Z,71.10
2023-02-02T15:28:21.298Z,71.14
2023-02-02T15:30:58.322Z,71.24
2023-02-02T15:33:36.621Z,71.39
2023-02-02T15:36:12.024Z,71.20
2023-02-02T15:38:41.744Z,71.45
2023-02-02T15:41:36.466Z,71.36
2023-02-02T15:44:18.473Z,71.43
2023-02-02T15:46:45.333Z,71.58
2023-02-02T15:49:35.181Z,71.46
2023-02-02T15:52:25.185Z,71.52
2023-02-02T15:54:54.717Z,71.67
2023-02-02T15:57:25.967Z,71.59
2023-02-02T15:59:52.505Z,71.51
2023-02-02T16:02:35.267Z,71.49
2023-02-02T16:05:01.699Z,71.60
2023-02-02T16:07:31.234Z,71.83
2023-02-02T16:10:08.278Z,71.64
2023-02-02T16:12:35.491Z,71.53
2023-02-02T16:15:02.030Z,71.80
2023-02-02T16:17:33.152Z,71.62
2023-02-02T16:20:12.259Z,71.72
2023-02-02T16:22:40.518Z,71.76
2023-02-02T16:25:10.460Z,71.67
2023-02-02T16:27:37.709Z,71.80
2023-02-02T16:30:08.457Z,71.94
2023-02-02T16:32:39.050Z,71.81
2023-02-02T16:35:25.775Z,71.91
2023-02-02T16:37:52.421Z,71.94
2023-02-02T16:40:26.470Z,71.74
2023-02-02T16:43:16.356Z,71.69
2023-02-02T16:45:52.065Z,72.23
2023-02-02T16:48:34.243Z,72.17
2023-02-02T16:51:16.359Z,72.11
2023-02-02T16:54:02.283Z,72.19
2023-02-02T16:56:35.637Z,72.17
2023-02-02T16:59:24.690Z,72.22
2023-02-02T17:01:59.001Z,72.12
2023-02-02T17:04:34.091Z,72.21
2023-02-02T17:07:14.258Z,72.26
2023-02-02T17:09:45.348Z,72.30
2023-02-02T17:12:34.873Z,72.28
2023-02-02T17:15:23.717Z,72.39
2023-02-02T17:17:51.896Z,72.57
2023-02-02T17:20:19.776Z,72.61
2023-02-02T17:23:07.088Z,72.18
2023-02-02T17:25:52.486Z,72.24
2023-02-02T17:28:25.971Z,72.32
2023-02-02T17:31:11.906Z,72.51
2023-02-02T17:33:39.362Z,72.27
2023-02-02T17:36:07.067Z,72.74
2023-02-02T17:38:33.997Z,72.85
2023-02-02T17:41:03.097Z,72.76
2023-02-02T17:43:30.799Z,72.63
2023-02-02T17:45:58.159Z,72.83
2023-02-02T17:48:24.852Z,72.61
2023-02-02T17:50:51.489Z,72.91
2023-02-02T17:53:21.136Z,72.50
2023-02-02T17:55:49.746Z,72.73
2023-02-02T17:58:17.966Z,72.84
2023-02-02T18:00:47.722Z,72.65
2023-02-02T18:03:19.464Z,72.80
2023-02-02T18:05:45.973Z,72.92
2023-02-02T18:08:14.739Z,72.98
2023-02-02T18:10:44.918Z,72.87
2023-02-02T18:13:20.200Z,72.92
2023-02-02T18:15:50.681Z,73.00
2023-02-02T18:18:18.742Z,73.09
2023-02-02T18:20:51.408Z,72.98
2023-02-02T18:23:33.312Z,73.17
2023-02-02T18:27:03.824Z,73.11
2023-02-02T18:29:38.052Z,73.48
2023-02-02T18:32:21.455Z,73.44
2023-02-02T18:34:53.166Z,73.31
2023-02-02T18:37:19.681Z,73.50
2023-02-02T18:39:46.198Z,73.54
2023-02-02T18:42:12.712Z,73.49
2023-02-02T18:44:39.161Z,73.67
2023-02-02T18:47:05.857Z,73.64
2023-02-02T18:49:32.312Z,73.43
2023-02-02T18:51:58.718Z,73.63
2023-02-02T18:54:25.152Z,73.74
2023-02-02T18:56:51.626Z,73.73
2023-02-02T18:59:18.071Z,73.47
2023-02-02T19:01:44.538Z,73.75
2023-02-02T19:04:11.158Z,73.76
2023-02-02T19:06:56.332Z,73.46
2023-02-02T19:09:22.969Z,73.87
2023-02-02T19:11:54.652Z,73.79
2023-02-02T19:14:28.458Z,73.53
2023-02-02T19:16:59.113Z,73.94
2023-02-02T19:19:33.532Z,73.84
2023-02-02T19:22:21.235Z,73.79
2023-02-02T19:24:48.330Z,74.10
2023-02-02T19:27:18.354Z,73.70
2023-02-02T19:29:46.327Z,73.58
2023-02-02T19:32:21.656Z,73.90
2023-02-02T19:34:49.602Z,73.71
2023-02-02T19:37:23.967Z,73.86
2023-02-02T19:40:02.184Z,73.85
2023-02-02T19:42:28.920Z,73.72
2023-02-02T19:44:56.491Z,73.63
2023-02-02T19:47:31.961Z,73.52
2023-02-02T19:50:11.923Z,73.67
2023-02-02T19:52:39.137Z,73.98
2023-02-02T19:55:26.127Z,73.75
2023-02-02T19:57:57.593Z,73.91
2023-02-02T20:00:28.018Z,73.93
2023-02-02T20:03:05.625Z,74.14
2023-02-02T20:05:40.839Z,74.09
2023-02-02T20:08:36.073Z,74.16
2023-02-02T20:11:39.526Z,74.08
2023-02-02T20:14:18.835Z,74.05
2023-02-02T20:16:53.690Z,73.95
2023-02-02T20:19:24.225Z,74.38
2023-02-02T20:21:52.817Z,74.02
2023-02-02T20:24:24.046Z,74.25
2023-02-02T20:26:53.544Z,74.35
2023-02-02T20:29:23.663Z,74.31
2023-02-02T20:31:53.296Z,74.29
2023-02-02T20:34:25.035Z,74.35
2023-02-02T20:37:01.067Z,74.50
2023-02-02T20:39:41.978Z,74.56
2023-02-02T20:42:08.535Z,74.07
2023-02-02T20:44:35.348Z,74.36
2023-02-02T20:47:02.629Z,74.50
2023-02-02T20:49:31.657Z,74.67
2023-02-02T20:52:03.649Z,74.72
2023-02-02T20:54:31.640Z,74.65
2023-02-02T20:56:58.291Z,74.83
2023-02-02T20:59:24.848Z,74.63
2023-02-02T21:01:52.507Z,74.56
2023-02-02T21:04:19.977Z,74.86
2023-02-02T21:06:48.706Z,74.75
2023-02-02T21:09:16.162Z,74.88
2023-02-02T21:11:43.064Z,74.86
2023-02-02T21:14:09.792Z,74.60
2023-02-02T21:16:36.451Z,74.55
2023-02-02T21:19:02.994Z,74.87
2023-02-02T21:21:29.504Z,74.54
2023-02-02T21:23:56.542Z,74.75
2023-02-02T21:26:27.166Z,74.82
2023-02-02T21:28:53.962Z,74.63
2023-02-02T21:31:20.500Z,74.59
2023-02-02T21:33:50.474Z,74.55
2023-02-02T21:36:26.183Z,74.54
2023-02-02T21:38:53.298Z,74.24
2023-02-02T21:41:20.216Z,74.65
2023-02-02T21:43:46.750Z,74.83
2023-02-02T21:46:52.970Z,74.36
2023-02-02T21:49:26.219Z,74.86
2023-02-02T21:51:57.242Z,74.60
2023-02-02T21:54:26.348Z,74.39
2023-02-02T21:56:53.596Z,74.46
2023-02-02T21:59:32.032Z,74.43
2023-02-02T22:01:58.672Z,74.58
2023-02-02T22:04:28.910Z,74.41
2023-02-02T22:07:10.316Z,74.98
2023-02-02T22:09:43.259Z,74.40
2023-02-02T22:12:23.106Z,74.77
2023-02-02T22:15:02.337Z,74.40
2023-02-02T22:17:40.447Z,74.54
2023-02-02T22:20:29.178Z,74.70
2023-02-02T22:22:55.879Z,74.64
2023-02-02T22:25:37.445Z,74.55
2023-02-02T22:28:24.322Z,74.99
2023-02-02T22:30:52.566Z,74.58
2023-02-02T22:33:19.704Z,74.42
2023-02-02T22:35:46.755Z,74.74
2023-02-02T22:38:18.995Z,74.58
2023-02-02T22:40:48.501Z,74.84
2023-02-02T22:43:16.558Z,74.78
2023-02-02T22:45:43.941Z,74.61
2023-02-02T22:48:11.674Z,74.64
2023-02-02T22:50:38.570Z,74.75
2023-02-02T22:53:07.528Z,74.69
2023-02-02T22:55:34.274Z,74.82
2023-02-02T22:58:01.186Z,74.55
2023-02-02T23:00:29.730Z,74.82
2023-02-02T23:02:56.866Z,74.78
2023-02-02T23:05:24.603Z,74.56
2023-02-02T23:07:51.491Z,74.68
2023-02-02T23:10:21.289Z,74.89
2023-02-02T23:12:48.615Z,74.79
2023-02-02T23:15:15.641Z,74.56
2023-02-02T23:17:42.246Z,74.84
2023-02-02T23:20:12.675Z,74.70
2023-02-02T23:22:40.108Z,74.83
2023-02-02T23:25:06.960Z,74.68
2023-02-02T23:27:33.787Z,74.82
2023-02-02T23:30:00.255Z,74.67
2023-02-02T23:32:26.728Z,74.93
2023-02-02T23:34:53.164Z,74.73
2023-02-02T23:37:20.050Z,74.79
2023-02-02T23:39:46.492Z,75.02
2023-02-02T23:42:13.035Z,74.89
2023-02-02T23:44:39.535Z,75.01
2023-02-02T23:47:06.129Z,74.99
2023-02-02T23:49:32.999Z,74.80
2023-02-02T23:52:00.139Z,74.81
2023-02-02T23:54:27.498Z,74.91
2023-02-02T23:56:54.119Z,74.93
2023-02-02T23:59:20.598Z,74.86
